createdAt,value
2019-04-05T00:01:57.988Z,29.90
2019-04-05T00:04:26.810Z,27.60
2019-04-05T00:06:55.160Z,28.30
2019-04-05T00:09:23.199Z,29.40
2019-04-05T00:11:51.559Z,28.60
2019-04-05T00:14:19.901Z,28.90
2019-04-05T00:16:48.208Z,30.00
2019-04-05T00:19:16.151Z,30.80
2019-04-05T00:21:45.149Z,30.00
2019-04-05T00:24:13.161Z,31.10
2019-04-05T00:26:41.206Z,31.80
2019-04-05T00:29:09.573Z,31.60
2019-04-05T00:31:37.559Z,31.50
2019-04-05T00:34:05.770Z,30.00
2019-04-05T00:36:33.798Z,30.00
2019-04-05T00:39:04.057Z,30.00
2019-04-05T00:41:33.039Z,32.50
2019-04-05T00:44:01.115Z,35.80
2019-04-05T00:46:29.758Z,40.00
2019-04-05T00:48:56.930Z,38.30
2019-04-05T00:51:25.596Z,37.90
2019-04-05T00:53:53.704Z,37.50
2019-04-05T00:56:21.953Z,37.30
2019-04-05T00:58:50.328Z,35.90
2019-04-05T01:01:18.387Z,36.90
2019-04-05T01:03:46.809Z,39.60
2019-04-05T01:06:15.255Z,38.60
2019-04-05T01:08:43.650Z,39.20
2019-04-05T01:11:12.108Z,39.70
2019-04-05T01:13:40.909Z,39.40
2019-04-05T01:16:09.166Z,39.50
2019-04-05T01:18:37.475Z,36.90
2019-04-05T01:21:07.896Z,34.60
2019-04-05T01:23:36.442Z,32.00
2019-04-05T01:26:05.190Z,32.20
2019-04-05T01:28:32.905Z,33.10
2019-04-05T01:31:01.301Z,33.40
2019-04-05T01:33:29.659Z,35.80
2019-04-05T01:35:56.813Z,34.50
2019-04-05T01:38:24.957Z,33.60
2019-04-05T01:40:55.799Z,34.40
2019-04-05T01:43:24.154Z,34.50
2019-04-05T01:45:54.145Z,34.00
2019-04-05T01:48:22.585Z,34.10
2019-04-05T01:50:50.838Z,34.10
2019-04-05T01:53:19.061Z,35.20
2019-04-05T01:55:47.541Z,36.70
2019-04-05T01:58:15.762Z,37.20
2019-04-05T02:00:45.058Z,35.90
2019-04-05T02:03:12.193Z,35.50
2019-04-05T02:05:41.691Z,36.70
2019-04-05T02:08:08.810Z,35.80
2019-04-05T02:10:37.198Z,37.40
2019-04-05T02:13:05.502Z,37.90
2019-04-05T02:15:35.466Z,37.50
2019-04-05T02:18:03.863Z,37.60
2019-04-05T02:20:31.035Z,36.30
2019-04-05T02:23:00.271Z,37.20
2019-04-05T02:25:27.994Z,38.00
2019-04-05T02:27:56.411Z,35.80
2019-04-05T02:30:25.634Z,34.70
2019-04-05T02:32:54.839Z,34.80
2019-04-05T02:35:23.144Z,35.80
2019-04-05T02:37:52.302Z,34.20
2019-04-05T02:40:24.460Z,32.70
2019-04-05T02:42:54.021Z,34.50
2019-04-05T02:45:24.399Z,35.70
2019-04-05T02:47:56.315Z,36.20
2019-04-05T02:50:28.342Z,34.70
2019-04-05T02:53:01.854Z,35.60
2019-04-05T02:55:30.020Z,35.70
2019-04-05T02:58:01.077Z,37.70
2019-04-05T03:00:29.648Z,36.30
2019-04-05T03:02:57.710Z,35.80
2019-04-05T03:05:24.882Z,36.60
2019-04-05T03:07:53.026Z,40.00
2019-04-05T03:10:58.138Z,38.80
2019-04-05T03:13:26.963Z,38.50
2019-04-05T03:15:58.007Z,38.30
2019-04-05T03:18:27.662Z,38.90
2019-04-05T03:20:59.478Z,39.40
2019-04-05T03:23:30.011Z,36.30
2019-04-05T03:26:01.992Z,37.10
2019-04-05T03:28:34.163Z,38.40
2019-04-05T03:31:01.339Z,38.40
2019-04-05T03:33:31.203Z,39.50
2019-04-05T03:35:58.349Z,36.80
2019-04-05T03:38:26.822Z,36.10
2019-04-05T03:40:55.312Z,36.50
2019-04-05T03:43:23.917Z,37.20
2019-04-05T03:45:52.871Z,37.60
2019-04-05T03:48:21.056Z,37.20
2019-04-05T03:50:49.414Z,38.20
2019-04-05T03:53:18.619Z,39.30
2019-04-05T03:55:47.736Z,39.00
2019-04-05T03:58:16.222Z,38.00
2019-04-05T04:00:44.973Z,37.60
2019-04-05T04:03:14.098Z,38.40
2019-04-05T04:05:43.176Z,38.00
2019-04-05T04:08:11.657Z,39.10
2019-04-05T04:10:40.873Z,38.40
2019-04-05T04:13:09.843Z,39.00
2019-04-05T04:15:37.616Z,37.80
2019-04-05T04:18:05.882Z,37.30
2019-04-05T04:20:41.378Z,37.00
2019-04-05T04:23:09.297Z,36.00
2019-04-05T04:25:37.432Z,35.70
2019-04-05T04:28:05.766Z,35.70
2019-04-05T04:30:35.106Z,36.40
2019-04-05T04:33:04.204Z,36.30
2019-04-05T04:35:32.658Z,36.90
2019-04-05T04:38:01.175Z,36.90
2019-04-05T04:40:29.669Z,38.50
2019-04-05T04:42:57.067Z,37.40
2019-04-05T04:45:26.090Z,35.80
2019-04-05T04:47:54.811Z,36.50
2019-04-05T04:50:24.234Z,36.60
2019-04-05T04:52:55.599Z,37.30
2019-04-05T04:55:23.755Z,37.10
2019-04-05T04:57:51.980Z,39.10
2019-04-05T05:00:19.594Z,39.00
2019-04-05T05:02:47.682Z,38.00
2019-04-05T05:05:16.220Z,37.70
2019-04-05T05:07:45.447Z,37.80
2019-04-05T05:10:13.579Z,37.10
2019-04-05T05:12:42.115Z,37.10
2019-04-05T05:15:10.436Z,37.10
2019-04-05T05:17:39.308Z,36.60
2019-04-05T05:20:07.858Z,36.40
2019-04-05T05:22:36.742Z,37.00
2019-04-05T05:25:06.033Z,37.20
2019-04-05T05:27:34.560Z,36.50
2019-04-05T05:30:03.835Z,38.20
2019-04-05T05:32:33.602Z,38.80
2019-04-05T05:35:02.556Z,39.00
2019-04-05T05:37:33.037Z,38.50
2019-04-05T05:40:02.019Z,38.40
2019-04-05T05:42:30.918Z,38.60
2019-04-05T05:44:59.625Z,38.80
2019-04-05T05:47:29.129Z,39.40
2019-04-05T05:49:56.890Z,39.20
2019-04-05T05:52:25.484Z,38.80
2019-04-05T05:54:53.959Z,39.20
2019-04-05T05:57:22.002Z,40.90
2019-04-05T05:59:50.467Z,40.30
2019-04-05T06:02:19.440Z,40.30
2019-04-05T06:04:50.719Z,39.60
2019-04-05T06:07:20.286Z,39.30
2019-04-05T06:09:47.922Z,40.30
2019-04-05T06:12:15.385Z,41.80
2019-04-05T06:14:43.451Z,41.70
2019-04-05T06:17:12.011Z,44.20
2019-04-05T06:19:40.498Z,44.80
2019-04-05T06:22:09.202Z,44.70
2019-04-05T06:24:37.106Z,44.80
2019-04-05T06:27:05.444Z,46.90
2019-04-05T06:29:33.870Z,47.00
2019-04-05T06:32:01.654Z,47.60
2019-04-05T06:34:29.710Z,46.30
2019-04-05T06:36:57.994Z,45.50
2019-04-05T06:39:26.266Z,45.70
2019-04-05T06:41:55.016Z,45.90
2019-04-05T06:44:23.721Z,45.50
2019-04-05T06:46:52.168Z,44.00
2019-04-05T06:49:20.500Z,42.80
2019-04-05T06:51:49.242Z,43.20
2019-04-05T06:54:19.013Z,43.40
2019-04-05T06:56:47.529Z,42.20
2019-04-05T06:59:15.606Z,42.30
2019-04-05T07:01:43.092Z,41.10
2019-04-05T07:04:11.009Z,41.80
2019-04-05T07:06:39.403Z,42.30
2019-04-05T07:09:06.664Z,42.40
2019-04-05T07:11:34.742Z,44.20
2019-04-05T07:14:03.261Z,45.40
2019-04-05T07:16:31.568Z,44.90
2019-04-05T07:18:59.843Z,44.80
2019-04-05T07:21:27.910Z,44.60
2019-04-05T07:23:55.977Z,44.60
2019-04-05T07:26:24.495Z,44.00
2019-04-05T07:28:52.798Z,43.30
2019-04-05T07:31:21.760Z,46.00
2019-04-05T07:33:49.783Z,45.40
2019-04-05T07:36:18.061Z,44.80
2019-04-05T07:38:46.083Z,43.60
2019-04-05T07:41:14.217Z,40.60
2019-04-05T07:43:42.257Z,40.90
2019-04-05T07:46:10.344Z,40.60
2019-04-05T07:48:44.617Z,42.10
2019-04-05T07:51:08.886Z,41.90
2019-04-05T07:53:37.113Z,39.90
2019-04-05T07:56:05.055Z,37.80
2019-04-05T07:58:33.285Z,36.40
2019-04-05T08:01:06.961Z,36.80
2019-04-05T08:03:35.439Z,34.50
2019-04-05T08:06:03.868Z,32.90
2019-04-05T08:08:40.814Z,32.80
2019-04-05T08:11:10.467Z,34.20
2019-04-05T08:13:41.511Z,30.70
2019-04-05T08:16:09.549Z,32.70
2019-04-05T08:18:37.687Z,32.30
2019-04-05T08:21:05.885Z,32.50
2019-04-05T08:23:35.225Z,30.00
2019-04-05T08:26:03.643Z,29.50
2019-04-05T08:28:31.765Z,28.90
2019-04-05T08:30:59.889Z,24.50
2019-04-05T08:33:27.928Z,25.50
2019-04-05T08:35:56.089Z,23.00
2019-04-05T08:38:26.515Z,25.00
2019-04-05T08:40:54.644Z,24.50
2019-04-05T08:43:22.926Z,24.20
2019-04-05T08:45:51.095Z,23.50
2019-04-05T08:48:19.239Z,22.30
2019-04-05T08:50:49.841Z,16.40
2019-04-05T08:53:18.027Z,15.70
2019-04-05T08:55:46.110Z,15.90
2019-04-05T08:58:14.227Z,17.00
2019-04-05T09:00:42.411Z,18.50
2019-04-05T09:03:12.103Z,19.50
2019-04-05T09:05:41.253Z,19.50
2019-04-05T09:08:09.617Z,19.00
2019-04-05T09:10:37.788Z,17.90
2019-04-05T09:13:05.951Z,19.90
2019-04-05T09:15:33.936Z,19.90
2019-04-05T09:18:07.257Z,19.70
2019-04-05T09:20:34.323Z,17.50
2019-04-05T09:23:02.508Z,16.40
2019-04-05T09:25:30.524Z,15.70
2019-04-05T09:27:58.547Z,14.20
2019-04-05T09:30:32.076Z,10.70
2019-04-05T09:32:59.453Z,9.90
2019-04-05T09:35:26.530Z,8.00
2019-04-05T09:37:54.590Z,7.40
2019-04-05T09:40:22.822Z,8.60
2019-04-05T09:42:55.507Z,8.70
2019-04-05T09:45:22.651Z,7.20
2019-04-05T09:47:49.877Z,6.50
2019-04-05T09:50:18.112Z,4.80
2019-04-05T09:52:46.175Z,4.70
2019-04-05T09:55:14.619Z,3.70
2019-04-05T09:57:43.382Z,4.40
2019-04-05T10:00:19.613Z,2.90
2019-04-05T10:02:47.143Z,3.00
2019-04-05T10:05:15.164Z,3.90
2019-04-05T10:07:54.130Z,3.50
2019-04-05T10:10:16.938Z,1.00
2019-04-05T10:12:44.696Z,1.00
2019-04-05T10:15:12.098Z,1.00
2019-04-05T10:17:40.906Z,1.00
2019-04-05T10:20:09.315Z,1.00
2019-04-05T10:22:39.954Z,1.00
2019-04-05T10:25:08.189Z,1.00
2019-04-05T10:27:36.497Z,1.30
2019-04-05T10:30:07.668Z,3.40
2019-04-05T10:32:37.880Z,1.00
2019-04-05T10:35:08.418Z,1.00
2019-04-05T10:37:35.663Z,1.00
2019-04-05T10:40:05.194Z,1.00
2019-04-05T10:42:33.469Z,1.00
2019-04-05T10:45:05.677Z,1.00
2019-04-05T10:47:33.930Z,1.00
2019-04-05T10:50:03.715Z,1.00
2019-04-05T10:52:32.287Z,1.00
2019-04-05T10:55:00.665Z,1.00
2019-04-05T10:57:36.199Z,1.00
2019-04-05T11:00:06.532Z,1.00
2019-04-05T11:02:33.935Z,1.00
2019-04-05T11:05:00.992Z,1.00
2019-04-05T11:07:27.942Z,1.00
2019-04-05T11:10:00.354Z,1.00
2019-04-05T11:12:27.732Z,1.00
2019-04-05T11:14:54.949Z,1.00
2019-04-05T11:17:22.076Z,1.00
2019-04-05T11:19:49.343Z,1.00
2019-04-05T11:22:20.205Z,1.00
2019-04-05T11:24:47.378Z,1.00
2019-04-05T11:27:14.396Z,1.00
2019-04-05T11:29:42.608Z,1.00
2019-04-05T11:32:11.020Z,1.00
2019-04-05T11:34:38.232Z,1.00
2019-04-05T11:37:06.292Z,1.00
2019-04-05T11:39:36.460Z,1.00
2019-04-05T11:42:05.295Z,1.00
2019-04-05T11:44:33.672Z,1.00
2019-04-05T11:47:03.341Z,1.00
2019-04-05T11:49:37.537Z,1.00
2019-04-05T11:52:05.779Z,1.00
2019-04-05T11:54:33.907Z,1.00
2019-04-05T11:57:02.290Z,1.00
2019-04-05T11:59:30.559Z,1.00
2019-04-05T12:02:24.320Z,1.00
2019-04-05T12:04:52.464Z,1.00
2019-04-05T12:07:26.583Z,1.00
2019-04-05T12:09:53.706Z,1.00
2019-04-05T12:12:21.273Z,1.00
2019-04-05T12:14:48.621Z,1.00
2019-04-05T12:17:15.905Z,1.00
2019-04-05T12:19:42.972Z,1.00
2019-04-05T12:22:15.759Z,1.00
2019-04-05T12:24:43.168Z,1.00
2019-04-05T12:27:10.639Z,1.00
2019-04-05T12:29:37.599Z,1.00
2019-04-05T12:32:05.313Z,1.00
2019-04-05T12:34:32.986Z,1.00
2019-04-05T12:37:02.838Z,1.00
2019-04-05T12:39:30.576Z,1.00
2019-04-05T12:41:58.872Z,1.00
2019-04-05T12:44:27.665Z,1.00
2019-04-05T12:46:55.808Z,1.00
2019-04-05T12:49:28.720Z,1.00
2019-04-05T12:51:57.192Z,1.00
2019-04-05T12:54:26.166Z,1.00
2019-04-05T12:56:54.250Z,1.00
2019-04-05T12:59:25.196Z,1.00
2019-04-05T13:01:53.072Z,1.00
2019-04-05T13:04:23.264Z,1.00
2019-04-05T13:06:52.924Z,1.00
2019-04-05T13:09:23.636Z,1.00
2019-04-05T13:11:56.441Z,1.00
2019-04-05T13:14:26.129Z,1.00
2019-04-05T13:16:53.510Z,1.00
2019-04-05T13:19:22.351Z,1.00
2019-04-05T13:21:49.922Z,1.00
2019-04-05T13:24:18.638Z,1.00
2019-04-05T13:26:47.482Z,1.00
2019-04-05T13:29:15.454Z,1.00
2019-04-05T13:31:44.339Z,1.00
2019-04-05T13:34:12.021Z,1.00
2019-04-05T13:36:40.848Z,1.00
2019-04-05T13:39:09.014Z,1.00
2019-04-05T13:41:41.387Z,1.00
2019-04-05T13:44:09.733Z,1.00
2019-04-05T13:46:39.102Z,1.00
2019-04-05T13:49:10.294Z,1.00
2019-04-05T13:51:41.718Z,1.00
2019-04-05T13:54:08.548Z,1.00
2019-04-05T13:56:39.560Z,1.00
2019-04-05T13:59:07.287Z,1.00
2019-04-05T14:01:34.722Z,1.00
2019-04-05T14:04:02.524Z,1.00
2019-04-05T14:06:30.251Z,1.00
2019-04-05T14:08:58.327Z,1.00
2019-04-05T14:11:26.132Z,1.00
2019-04-05T14:13:53.559Z,1.00
2019-04-05T14:16:20.945Z,1.00
2019-04-05T14:18:49.852Z,1.00
2019-04-05T14:21:20.636Z,1.00
2019-04-05T14:23:48.317Z,1.00
2019-04-05T14:26:16.702Z,1.00
2019-04-05T14:28:45.465Z,1.00
2019-04-05T14:31:14.144Z,1.00
2019-04-05T14:33:42.627Z,1.00
2019-04-05T14:36:11.415Z,1.00
2019-04-05T14:38:45.407Z,1.00
2019-04-05T14:41:21.943Z,1.00
2019-04-05T14:44:14.492Z,1.00
2019-04-05T14:46:43.521Z,1.00
2019-04-05T14:49:11.421Z,1.00
2019-04-05T14:51:52.193Z,1.00
2019-04-05T14:54:10.085Z,1.00
2019-04-05T14:56:38.233Z,1.00
2019-04-05T14:59:06.240Z,1.00
2019-04-05T15:01:37.541Z,1.00
2019-04-05T15:04:05.480Z,1.00
2019-04-05T15:06:33.333Z,1.00
2019-04-05T15:09:02.150Z,1.00
2019-04-05T15:11:30.919Z,1.00
2019-04-05T15:13:58.477Z,1.00
2019-04-05T15:16:26.644Z,1.00
2019-04-05T15:18:54.054Z,1.00
2019-04-05T15:21:21.936Z,1.00
2019-04-05T15:23:49.391Z,1.00
2019-04-05T15:26:16.546Z,1.00
2019-04-05T15:28:44.967Z,1.00
2019-04-05T15:31:12.270Z,1.00
2019-04-05T15:33:45.486Z,1.00
2019-04-05T15:36:12.807Z,1.00
2019-04-05T15:38:40.006Z,1.00
2019-04-05T15:41:07.974Z,1.00
2019-04-05T15:43:35.522Z,1.00
2019-04-05T15:46:03.122Z,1.00
2019-04-05T15:48:31.051Z,1.00
2019-04-05T15:50:59.335Z,1.00
2019-04-05T15:53:27.541Z,1.00
2019-04-05T15:56:04.007Z,1.00
2019-04-05T15:58:29.364Z,1.00
2019-04-05T16:00:56.620Z,1.00
2019-04-05T16:03:24.303Z,1.00
2019-04-05T16:05:52.074Z,1.00
2019-04-05T16:08:24.193Z,1.00
2019-04-05T16:10:52.119Z,1.00
2019-04-05T16:13:20.524Z,1.00
2019-04-05T16:15:47.898Z,1.00
2019-04-05T16:18:15.286Z,3.90
2019-04-05T16:20:43.048Z,4.00
2019-04-05T16:23:12.496Z,5.30
2019-04-05T16:25:40.269Z,5.80
2019-04-05T16:28:08.002Z,6.00
2019-04-05T16:30:34.954Z,5.50
2019-04-05T16:33:02.307Z,5.70
2019-04-05T16:35:30.478Z,5.40
2019-04-05T16:38:03.068Z,7.40
2019-04-05T16:40:31.556Z,8.60
2019-04-05T16:43:02.616Z,9.70
2019-04-05T16:45:28.908Z,10.40
2019-04-05T16:47:55.975Z,12.50
2019-04-05T16:50:29.106Z,12.40
2019-04-05T16:52:56.758Z,13.20
2019-04-05T16:55:23.704Z,13.10
2019-04-05T16:57:51.142Z,13.80
2019-04-05T17:00:18.975Z,14.10
2019-04-05T17:02:46.644Z,13.40
2019-04-05T17:05:16.156Z,14.20
2019-04-05T17:07:44.555Z,15.10
2019-04-05T17:10:13.067Z,17.80
2019-04-05T17:12:40.379Z,17.50
2019-04-05T17:15:09.450Z,17.20
2019-04-05T17:17:41.635Z,16.70
2019-04-05T17:20:10.204Z,18.40
2019-04-05T17:22:37.967Z,19.80
2019-04-05T17:25:06.310Z,20.30
2019-04-05T17:27:34.570Z,20.00
2019-04-05T17:30:06.899Z,19.80
2019-04-05T17:32:36.194Z,22.20
2019-04-05T17:35:06.362Z,24.40
2019-04-05T17:37:33.668Z,25.70
2019-04-05T17:40:06.765Z,26.70
2019-04-05T17:42:34.939Z,26.30
2019-04-05T17:45:02.622Z,28.00
2019-04-05T17:47:30.050Z,28.90
2019-04-05T17:49:57.706Z,28.90
2019-04-05T17:52:26.036Z,30.80
2019-04-05T17:54:55.186Z,33.50
2019-04-05T17:57:23.918Z,36.40
2019-04-05T17:59:52.756Z,42.00
2019-04-05T18:02:21.654Z,43.80
2019-04-05T18:04:50.103Z,47.10
2019-04-05T18:07:17.399Z,50.20
2019-04-05T18:09:46.162Z,51.10
2019-04-05T18:12:14.812Z,54.40
2019-04-05T18:14:43.471Z,54.30
2019-04-05T18:17:12.554Z,56.90
2019-04-05T18:19:39.923Z,59.30
2019-04-05T18:22:09.460Z,61.40
2019-04-05T18:24:37.869Z,63.00
2019-04-05T18:27:06.059Z,63.30
2019-04-05T18:29:34.534Z,62.90
2019-04-05T18:32:02.633Z,62.60
2019-04-05T18:34:31.327Z,63.20
2019-04-05T18:36:59.065Z,62.00
2019-04-05T18:39:27.959Z,63.10
2019-04-05T18:41:56.826Z,62.70
2019-04-05T18:44:26.950Z,62.90
2019-04-05T18:46:54.199Z,62.70
2019-04-05T18:49:21.575Z,62.00
2019-04-05T18:51:49.106Z,62.50
2019-04-05T18:54:17.447Z,62.60
2019-04-05T18:56:45.957Z,62.70
2019-04-05T18:59:13.404Z,65.00
2019-04-05T19:01:42.088Z,65.60
2019-04-05T19:04:10.256Z,64.90
2019-04-05T19:06:38.768Z,64.00
2019-04-05T19:09:07.344Z,63.70
2019-04-05T19:11:36.278Z,63.80
2019-04-05T19:14:04.883Z,65.20
2019-04-05T19:16:33.566Z,64.40
2019-04-05T19:19:02.526Z,63.90
2019-04-05T19:21:30.988Z,65.90
2019-04-05T19:24:00.159Z,65.00
2019-04-05T19:26:28.652Z,66.20
2019-04-05T19:28:56.740Z,65.00
2019-04-05T19:48:55.364Z,66.00
2019-04-05T19:51:22.749Z,64.90
2019-04-05T19:54:00.813Z,65.10
2019-04-05T19:56:24.246Z,64.90
2019-04-05T19:58:52.422Z,63.90
2019-04-05T20:01:20.505Z,62.20
2019-04-05T20:03:48.493Z,60.10
2019-04-05T20:06:16.536Z,60.70
2019-04-05T20:08:45.076Z,61.40
2019-04-05T20:11:13.204Z,60.70
2019-04-05T20:13:41.275Z,60.00
2019-04-05T20:16:09.595Z,59.70
2019-04-05T20:18:37.759Z,60.00
2019-04-05T20:21:05.819Z,60.20
2019-04-05T20:23:34.002Z,59.00
2019-04-05T20:26:02.864Z,58.30
2019-04-05T20:28:30.966Z,57.10
2019-04-05T20:30:58.627Z,56.80
2019-04-05T20:33:27.544Z,55.60
2019-04-05T20:35:56.302Z,55.50
2019-04-05T20:38:25.318Z,54.80
2019-04-05T20:40:52.926Z,55.70
2019-04-05T20:43:22.040Z,55.40
2019-04-05T20:45:49.915Z,55.10
2019-04-05T20:48:17.962Z,54.60
2019-04-05T20:50:46.999Z,54.50
2019-04-05T20:53:15.059Z,54.50
2019-04-05T20:55:43.372Z,54.50
2019-04-05T20:58:11.802Z,55.80
2019-04-05T21:00:40.297Z,55.90
2019-04-05T21:03:07.859Z,56.50
2019-04-05T21:05:35.861Z,57.90
2019-04-05T21:08:04.350Z,59.80
2019-04-05T21:10:32.427Z,60.30
2019-04-05T21:13:00.595Z,60.60
2019-04-05T21:15:28.787Z,62.60
2019-04-05T21:17:57.302Z,61.00
2019-04-05T21:20:24.270Z,60.80
2019-04-05T21:22:52.357Z,60.40
2019-04-05T21:25:20.490Z,60.70
2019-04-05T21:27:48.885Z,60.30
2019-04-05T21:30:17.231Z,59.60
2019-04-05T21:32:45.500Z,59.10
2019-04-05T21:35:13.880Z,57.90
2019-04-05T21:37:42.597Z,57.40
2019-04-05T21:40:10.221Z,58.90
2019-04-05T21:42:38.536Z,59.10
2019-04-05T21:45:07.851Z,59.00
2019-04-05T21:47:36.950Z,58.60
2019-04-05T21:50:05.007Z,58.20
2019-04-05T21:52:33.551Z,58.10
2019-04-05T21:55:02.517Z,57.70
2019-04-05T21:57:30.553Z,57.80
2019-04-05T21:59:59.331Z,57.20
2019-04-05T22:02:27.754Z,58.60
2019-04-05T22:04:56.072Z,59.10
2019-04-05T22:07:24.141Z,60.90
2019-04-05T22:09:52.850Z,64.10
2019-04-05T22:12:20.504Z,64.10
2019-04-05T22:14:49.615Z,64.60
2019-04-05T22:17:21.455Z,65.00
2019-04-05T22:19:48.514Z,67.30
2019-04-05T22:22:17.838Z,68.10
2019-04-05T22:24:45.190Z,69.10
2019-04-05T22:27:17.035Z,72.20
2019-04-05T22:29:45.030Z,74.20
2019-04-05T22:32:12.602Z,75.20
2019-04-05T22:34:39.927Z,74.90
2019-04-05T22:37:07.483Z,74.80
2019-04-05T22:39:35.251Z,77.70
2019-04-05T22:42:03.727Z,76.90
2019-04-05T22:44:38.809Z,76.50
2019-04-05T22:47:03.250Z,76.20
2019-04-05T22:49:31.241Z,74.90
2019-04-05T22:51:58.610Z,74.10
2019-04-05T22:54:27.354Z,74.60
2019-04-05T22:56:55.966Z,73.50
2019-04-05T22:59:25.171Z,72.60
2019-04-05T23:01:53.543Z,70.20
2019-04-05T23:04:22.826Z,70.70
2019-04-05T23:06:50.799Z,71.00
2019-04-05T23:09:19.359Z,70.50
2019-04-05T23:11:48.212Z,71.50
2019-04-05T23:14:16.498Z,72.60
2019-04-05T23:16:44.941Z,74.80
2019-04-05T23:19:13.290Z,75.10
2019-04-05T23:21:41.699Z,74.40
2019-04-05T23:24:10.060Z,74.50
2019-04-05T23:26:38.532Z,74.80
2019-04-05T23:29:06.860Z,75.30
2019-04-05T23:31:35.566Z,75.00
2019-04-05T23:34:04.490Z,74.90
2019-04-05T23:36:34.840Z,76.10
2019-04-05T23:39:02.892Z,78.90
2019-04-05T23:41:30.763Z,80.30
2019-04-05T23:43:58.334Z,80.50
2019-04-05T23:46:27.274Z,80.60
2019-04-05T23:48:56.395Z,80.20
2019-04-05T23:51:24.516Z,80.30
2019-04-05T23:53:52.447Z,80.50
2019-04-05T23:56:21.135Z,80.00
2019-04-05T23:58:49.805Z,79.70
